sensor_id;sensor_type;location;lat;lon;timestamp;P1;durP1;ratioP1;P2;durP2;ratioP2
1625;SDS011;806;48.770;9.156;2022-09-03T00:00:55;0.60;;;0.47;;
1625;SDS011;806;48.770;9.156;2022-09-03T00:03:26;2.60;;;0.40;;
1625;SDS011;806;48.770;9.156;2022-09-03T00:06:02;0.67;;;0.50;;
1625;SDS011;806;48.770;9.156;2022-09-03T00:08:39;0.73;;;0.40;;
1625;SDS011;806;48.770;9.156;2022-09-03T00:11:11;0.80;;;0.60;;
1625;SDS011;806;48.770;9.156;2022-09-03T00:13:44;1.40;;;0.57;;
1625;SDS011;806;48.770;9.156;2022-09-03T00:16:16;0.80;;;0.40;;
1625;SDS011;806;48.770;9.156;2022-09-03T00:18:48;0.70;;;0.50;;
1625;SDS011;806;48.770;9.156;2022-09-03T00:21:23;0.60;;;0.50;;
1625;SDS011;806;48.770;9.156;2022-09-03T00:23:58;0.80;;;0.40;;
1625;SDS011;806;48.770;9.156;2022-09-03T00:26:28;1.13;;;0.70;;
1625;SDS011;806;48.770;9.156;2022-09-03T00:29:00;0.73;;;0.50;;
1625;SDS011;806;48.770;9.156;2022-09-03T00:31:32;0.77;;;0.50;;
1625;SDS011;806;48.770;9.156;2022-09-03T00:34:04;0.60;;;0.40;;
1625;SDS011;806;48.770;9.156;2022-09-03T00:36:35;0.93;;;0.50;;
1625;SDS011;806;48.770;9.156;2022-09-03T00:39:09;0.60;;;0.40;;
1625;SDS011;806;48.770;9.156;2022-09-03T00:41:37;0.50;;;0.40;;
1625;SDS011;806;48.770;9.156;2022-09-03T00:44:32;0.60;;;0.50;;
1625;SDS011;806;48.770;9.156;2022-09-03T00:47:15;0.50;;;0.40;;
1625;SDS011;806;48.770;9.156;2022-09-03T00:49:53;0.67;;;0.40;;
1625;SDS011;806;48.770;9.156;2022-09-03T00:52:32;0.60;;;0.40;;
1625;SDS011;806;48.770;9.156;2022-09-03T00:55:12;0.70;;;0.40;;
1625;SDS011;806;48.770;9.156;2022-09-03T00:57:56;0.73;;;0.40;;
1625;SDS011;806;48.770;9.156;2022-09-03T01:00:44;0.50;;;0.30;;
1625;SDS011;806;48.770;9.156;2022-09-03T01:03:15;0.70;;;0.50;;
1625;SDS011;806;48.770;9.156;2022-09-03T01:05:57;0.60;;;0.40;;
1625;SDS011;806;48.770;9.156;2022-09-03T01:08:43;0.80;;;0.50;;
1625;SDS011;806;48.770;9.156;2022-09-03T01:11:29;0.60;;;0.40;;
1625;SDS011;806;48.770;9.156;2022-09-03T01:14:09;0.70;;;0.40;;
1625;SDS011;806;48.770;9.156;2022-09-03T01:16:50;0.60;;;0.50;;
1625;SDS011;806;48.770;9.156;2022-09-03T01:22:23;0.80;;;0.40;;
1625;SDS011;806;48.770;9.156;2022-09-03T01:25:19;0.60;;;0.40;;
1625;SDS011;806;48.770;9.156;2022-09-03T01:28:05;0.60;;;0.50;;
1625;SDS011;806;48.770;9.156;2022-09-03T01:30:52;0.70;;;0.40;;
1625;SDS011;806;48.770;9.156;2022-09-03T01:33:27;0.50;;;0.40;;
1625;SDS011;806;48.770;9.156;2022-09-03T01:36:00;0.60;;;0.50;;
1625;SDS011;806;48.770;9.156;2022-09-03T01:38:33;0.60;;;0.40;;
1625;SDS011;806;48.770;9.156;2022-09-03T01:41:10;0.40;;;0.40;;
1625;SDS011;806;48.770;9.156;2022-09-03T01:44:22;2.20;;;0.50;;
1625;SDS011;806;48.770;9.156;2022-09-03T01:46:58;0.60;;;0.40;;
1625;SDS011;806;48.770;9.156;2022-09-03T01:49:37;0.90;;;0.50;;
1625;SDS011;806;48.770;9.156;2022-09-03T01:52:10;0.57;;;0.40;;
1625;SDS011;806;48.770;9.156;2022-09-03T01:54:42;0.60;;;0.30;;
1625;SDS011;806;48.770;9.156;2022-09-03T02:00:17;0.90;;;0.40;;
1625;SDS011;806;48.770;9.156;2022-09-03T02:02:46;0.50;;;0.40;;
1625;SDS011;806;48.770;9.156;2022-09-03T02:05:16;0.67;;;0.47;;
1625;SDS011;806;48.770;9.156;2022-09-03T02:07:48;0.60;;;0.40;;
1625;SDS011;806;48.770;9.156;2022-09-03T02:10:23;0.70;;;0.50;;
1625;SDS011;806;48.770;9.156;2022-09-03T02:13:06;0.90;;;0.40;;
1625;SDS011;806;48.770;9.156;2022-09-03T02:15:37;0.57;;;0.37;;
1625;SDS011;806;48.770;9.156;2022-09-03T02:18:09;0.97;;;0.50;;
1625;SDS011;806;48.770;9.156;2022-09-03T02:20:40;0.60;;;0.37;;
1625;SDS011;806;48.770;9.156;2022-09-03T02:23:08;0.60;;;0.40;;
1625;SDS011;806;48.770;9.156;2022-09-03T02:25:37;0.50;;;0.37;;
1625;SDS011;806;48.770;9.156;2022-09-03T02:28:08;0.80;;;0.40;;
1625;SDS011;806;48.770;9.156;2022-09-03T02:30:37;0.50;;;0.30;;
1625;SDS011;806;48.770;9.156;2022-09-03T02:33:04;0.70;;;0.30;;
1625;SDS011;806;48.770;9.156;2022-09-03T02:35:31;0.40;;;0.40;;
1625;SDS011;806;48.770;9.156;2022-09-03T02:38:07;0.73;;;0.50;;
1625;SDS011;806;48.770;9.156;2022-09-03T02:40:35;0.40;;;0.30;;
1625;SDS011;806;48.770;9.156;2022-09-03T02:43:03;0.60;;;0.40;;
1625;SDS011;806;48.770;9.156;2022-09-03T02:45:33;0.70;;;0.50;;
1625;SDS011;806;48.770;9.156;2022-09-03T02:48:07;0.50;;;0.40;;
1625;SDS011;806;48.770;9.156;2022-09-03T02:50:39;0.87;;;0.43;;
1625;SDS011;806;48.770;9.156;2022-09-03T02:53:06;0.50;;;0.40;;
1625;SDS011;806;48.770;9.156;2022-09-03T02:55:33;0.50;;;0.40;;
1625;SDS011;806;48.770;9.156;2022-09-03T02:58:00;0.77;;;0.50;;
1625;SDS011;806;48.770;9.156;2022-09-03T03:00:30;0.50;;;0.40;;
1625;SDS011;806;48.770;9.156;2022-09-03T03:02:59;0.90;;;0.30;;
1625;SDS011;806;48.770;9.156;2022-09-03T03:05:29;0.57;;;0.40;;
1625;SDS011;806;48.770;9.156;2022-09-03T03:08:07;0.60;;;0.40;;
1625;SDS011;806;48.770;9.156;2022-09-03T03:10:34;0.73;;;0.40;;
1625;SDS011;806;48.770;9.156;2022-09-03T03:13:01;0.70;;;0.50;;
1625;SDS011;806;48.770;9.156;2022-09-03T03:15:28;0.50;;;0.40;;
1625;SDS011;806;48.770;9.156;2022-09-03T03:17:55;0.70;;;0.50;;
1625;SDS011;806;48.770;9.156;2022-09-03T03:20:24;0.63;;;0.40;;
1625;SDS011;806;48.770;9.156;2022-09-03T03:22:51;1.03;;;0.40;;
1625;SDS011;806;48.770;9.156;2022-09-03T03:25:18;2.77;;;0.50;;
1625;SDS011;806;48.770;9.156;2022-09-03T03:27:44;0.70;;;0.50;;
1625;SDS011;806;48.770;9.156;2022-09-03T03:30:12;0.70;;;0.50;;
1625;SDS011;806;48.770;9.156;2022-09-03T03:32:39;1.70;;;0.50;;
1625;SDS011;806;48.770;9.156;2022-09-03T03:35:06;0.70;;;0.40;;
1625;SDS011;806;48.770;9.156;2022-09-03T03:37:37;0.50;;;0.40;;
1625;SDS011;806;48.770;9.156;2022-09-03T03:40:04;0.60;;;0.40;;
1625;SDS011;806;48.770;9.156;2022-09-03T03:42:32;0.70;;;0.50;;
1625;SDS011;806;48.770;9.156;2022-09-03T03:44:59;0.67;;;0.50;;
1625;SDS011;806;48.770;9.156;2022-09-03T03:47:27;0.87;;;0.50;;
1625;SDS011;806;48.770;9.156;2022-09-03T03:49:55;0.67;;;0.40;;
1625;SDS011;806;48.770;9.156;2022-09-03T03:52:22;0.60;;;0.40;;
1625;SDS011;806;48.770;9.156;2022-09-03T03:54:50;0.60;;;0.50;;
1625;SDS011;806;48.770;9.156;2022-09-03T03:57:18;0.60;;;0.40;;
1625;SDS011;806;48.770;9.156;2022-09-03T03:59:47;0.50;;;0.47;;
1625;SDS011;806;48.770;9.156;2022-09-03T04:02:16;0.90;;;0.50;;
1625;SDS011;806;48.770;9.156;2022-09-03T04:04:43;0.60;;;0.47;;
1625;SDS011;806;48.770;9.156;2022-09-03T04:07:10;0.67;;;0.50;;
1625;SDS011;806;48.770;9.156;2022-09-03T04:09:37;0.77;;;0.50;;
1625;SDS011;806;48.770;9.156;2022-09-03T04:12:05;0.60;;;0.43;;
1625;SDS011;806;48.770;9.156;2022-09-03T04:14:33;0.67;;;0.50;;
1625;SDS011;806;48.770;9.156;2022-09-03T04:17:00;0.90;;;0.50;;
1625;SDS011;806;48.770;9.156;2022-09-03T04:19:27;0.80;;;0.60;;
1625;SDS011;806;48.770;9.156;2022-09-03T04:21:54;0.60;;;0.50;;
1625;SDS011;806;48.770;9.156;2022-09-03T04:24:21;0.60;;;0.40;;
1625;SDS011;806;48.770;9.156;2022-09-03T04:26:48;1.43;;;1.33;;
1625;SDS011;806;48.770;9.156;2022-09-03T04:29:17;1.60;;;0.50;;
1625;SDS011;806;48.770;9.156;2022-09-03T04:31:46;2.40;;;0.50;;
1625;SDS011;806;48.770;9.156;2022-09-03T04:34:26;0.70;;;0.50;;
1625;SDS011;806;48.770;9.156;2022-09-03T04:36:53;1.13;;;0.50;;
1625;SDS011;806;48.770;9.156;2022-09-03T04:39:22;0.83;;;0.53;;
1625;SDS011;806;48.770;9.156;2022-09-03T04:41:49;0.87;;;0.50;;
1625;SDS011;806;48.770;9.156;2022-09-03T04:44:17;1.13;;;0.50;;
1625;SDS011;806;48.770;9.156;2022-09-03T04:46:44;0.60;;;0.50;;
1625;SDS011;806;48.770;9.156;2022-09-03T04:49:12;0.80;;;0.57;;
1625;SDS011;806;48.770;9.156;2022-09-03T04:51:39;0.63;;;0.50;;
1625;SDS011;806;48.770;9.156;2022-09-03T04:54:06;0.80;;;0.50;;
1625;SDS011;806;48.770;9.156;2022-09-03T04:56:34;0.60;;;0.50;;
1625;SDS011;806;48.770;9.156;2022-09-03T04:59:02;0.63;;;0.50;;
1625;SDS011;806;48.770;9.156;2022-09-03T05:01:33;0.77;;;0.50;;
1625;SDS011;806;48.770;9.156;2022-09-03T05:04:01;0.60;;;0.47;;
1625;SDS011;806;48.770;9.156;2022-09-03T05:06:29;1.73;;;0.53;;
1625;SDS011;806;48.770;9.156;2022-09-03T05:08:57;1.20;;;0.50;;
1625;SDS011;806;48.770;9.156;2022-09-03T05:11:25;0.80;;;0.60;;
1625;SDS011;806;48.770;9.156;2022-09-03T05:13:54;0.80;;;0.50;;
1625;SDS011;806;48.770;9.156;2022-09-03T05:16:23;2.20;;;0.50;;
1625;SDS011;806;48.770;9.156;2022-09-03T05:18:52;0.80;;;0.63;;
1625;SDS011;806;48.770;9.156;2022-09-03T05:21:20;1.03;;;0.60;;
1625;SDS011;806;48.770;9.156;2022-09-03T05:23:48;0.70;;;0.50;;
1625;SDS011;806;48.770;9.156;2022-09-03T05:26:16;1.03;;;0.70;;
1625;SDS011;806;48.770;9.156;2022-09-03T05:28:44;0.70;;;0.60;;
1625;SDS011;806;48.770;9.156;2022-09-03T05:31:12;0.90;;;0.53;;
1625;SDS011;806;48.770;9.156;2022-09-03T05:33:41;4.03;;;0.60;;
1625;SDS011;806;48.770;9.156;2022-09-03T05:36:10;2.70;;;0.60;;
1625;SDS011;806;48.770;9.156;2022-09-03T05:38:39;0.97;;;0.60;;
1625;SDS011;806;48.770;9.156;2022-09-03T05:41:07;1.10;;;0.70;;
1625;SDS011;806;48.770;9.156;2022-09-03T05:43:35;0.87;;;0.57;;
1625;SDS011;806;48.770;9.156;2022-09-03T05:46:03;0.60;;;0.50;;
1625;SDS011;806;48.770;9.156;2022-09-03T05:48:31;0.60;;;0.50;;
1625;SDS011;806;48.770;9.156;2022-09-03T05:51:00;1.60;;;0.70;;
1625;SDS011;806;48.770;9.156;2022-09-03T05:53:29;2.27;;;0.70;;
1625;SDS011;806;48.770;9.156;2022-09-03T05:55:59;0.70;;;0.60;;
1625;SDS011;806;48.770;9.156;2022-09-03T05:58:29;0.80;;;0.60;;
1625;SDS011;806;48.770;9.156;2022-09-03T06:00:56;0.70;;;0.60;;
1625;SDS011;806;48.770;9.156;2022-09-03T06:03:23;1.73;;;1.57;;
1625;SDS011;806;48.770;9.156;2022-09-03T06:05:49;0.80;;;0.50;;
1625;SDS011;806;48.770;9.156;2022-09-03T06:08:17;0.97;;;0.70;;
1625;SDS011;806;48.770;9.156;2022-09-03T06:10:45;0.83;;;0.67;;
1625;SDS011;806;48.770;9.156;2022-09-03T06:13:13;1.40;;;0.63;;
1625;SDS011;806;48.770;9.156;2022-09-03T06:15:39;3.27;;;0.73;;
1625;SDS011;806;48.770;9.156;2022-09-03T06:18:06;0.70;;;0.57;;
1625;SDS011;806;48.770;9.156;2022-09-03T06:20:33;0.87;;;0.60;;
1625;SDS011;806;48.770;9.156;2022-09-03T06:23:00;1.87;;;0.90;;
1625;SDS011;806;48.770;9.156;2022-09-03T06:25:28;0.90;;;0.60;;
1625;SDS011;806;48.770;9.156;2022-09-03T06:27:57;1.03;;;0.60;;
1625;SDS011;806;48.770;9.156;2022-09-03T06:30:24;0.80;;;0.70;;
1625;SDS011;806;48.770;9.156;2022-09-03T06:32:52;0.97;;;0.60;;
1625;SDS011;806;48.770;9.156;2022-09-03T06:35:19;0.80;;;0.60;;
1625;SDS011;806;48.770;9.156;2022-09-03T06:37:46;4.80;;;0.73;;
1625;SDS011;806;48.770;9.156;2022-09-03T06:40:13;0.80;;;0.73;;
1625;SDS011;806;48.770;9.156;2022-09-03T06:42:54;1.73;;;0.70;;
1625;SDS011;806;48.770;9.156;2022-09-03T06:45:23;0.90;;;0.70;;
1625;SDS011;806;48.770;9.156;2022-09-03T06:47:50;1.20;;;0.80;;
1625;SDS011;806;48.770;9.156;2022-09-03T06:50:18;1.10;;;0.83;;
1625;SDS011;806;48.770;9.156;2022-09-03T06:52:49;2.30;;;0.70;;
1625;SDS011;806;48.770;9.156;2022-09-03T06:55:19;1.37;;;0.70;;
1625;SDS011;806;48.770;9.156;2022-09-03T06:57:46;0.80;;;0.70;;
1625;SDS011;806;48.770;9.156;2022-09-03T07:00:13;1.43;;;0.70;;
1625;SDS011;806;48.770;9.156;2022-09-03T07:02:42;1.10;;;0.70;;
1625;SDS011;806;48.770;9.156;2022-09-03T07:05:09;1.13;;;0.90;;
1625;SDS011;806;48.770;9.156;2022-09-03T07:07:36;1.83;;;0.90;;
1625;SDS011;806;48.770;9.156;2022-09-03T07:10:03;1.00;;;0.80;;
1625;SDS011;806;48.770;9.156;2022-09-03T07:12:31;1.20;;;0.83;;
1625;SDS011;806;48.770;9.156;2022-09-03T07:14:59;1.30;;;0.73;;
1625;SDS011;806;48.770;9.156;2022-09-03T07:17:25;0.70;;;0.50;;
1625;SDS011;806;48.770;9.156;2022-09-03T07:19:54;1.00;;;0.90;;
1625;SDS011;806;48.770;9.156;2022-09-03T07:22:21;1.17;;;0.70;;
1625;SDS011;806;48.770;9.156;2022-09-03T07:24:48;2.40;;;0.80;;
1625;SDS011;806;48.770;9.156;2022-09-03T07:27:16;1.00;;;0.80;;
1625;SDS011;806;48.770;9.156;2022-09-03T07:29:43;1.00;;;0.73;;
1625;SDS011;806;48.770;9.156;2022-09-03T07:32:10;0.90;;;0.80;;
1625;SDS011;806;48.770;9.156;2022-09-03T07:34:37;0.80;;;0.77;;
1625;SDS011;806;48.770;9.156;2022-09-03T07:37:05;0.90;;;0.80;;
1625;SDS011;806;48.770;9.156;2022-09-03T07:39:35;1.00;;;0.80;;
1625;SDS011;806;48.770;9.156;2022-09-03T07:42:02;1.10;;;0.90;;
1625;SDS011;806;48.770;9.156;2022-09-03T07:44:29;1.83;;;0.70;;
1625;SDS011;806;48.770;9.156;2022-09-03T07:46:56;0.90;;;0.80;;
1625;SDS011;806;48.770;9.156;2022-09-03T07:49:24;1.60;;;0.80;;
1625;SDS011;806;48.770;9.156;2022-09-03T07:51:51;1.30;;;0.90;;
1625;SDS011;806;48.770;9.156;2022-09-03T07:54:20;1.00;;;0.80;;
1625;SDS011;806;48.770;9.156;2022-09-03T07:56:48;1.00;;;0.80;;
1625;SDS011;806;48.770;9.156;2022-09-03T07:59:15;2.13;;;0.90;;
1625;SDS011;806;48.770;9.156;2022-09-03T08:01:43;1.10;;;0.90;;
1625;SDS011;806;48.770;9.156;2022-09-03T08:04:10;1.40;;;1.00;;
1625;SDS011;806;48.770;9.156;2022-09-03T08:06:37;0.90;;;0.80;;
1625;SDS011;806;48.770;9.156;2022-09-03T08:09:06;1.30;;;0.80;;
1625;SDS011;806;48.770;9.156;2022-09-03T08:11:39;1.20;;;0.80;;
1625;SDS011;806;48.770;9.156;2022-09-03T08:14:09;2.20;;;0.80;;
1625;SDS011;806;48.770;9.156;2022-09-03T08:16:37;0.90;;;0.70;;
1625;SDS011;806;48.770;9.156;2022-09-03T08:19:05;1.00;;;0.77;;
1625;SDS011;806;48.770;9.156;2022-09-03T08:21:32;2.70;;;0.70;;
1625;SDS011;806;48.770;9.156;2022-09-03T08:24:00;1.07;;;0.70;;
1625;SDS011;806;48.770;9.156;2022-09-03T08:26:28;0.97;;;0.80;;
1625;SDS011;806;48.770;9.156;2022-09-03T08:28:57;1.50;;;0.80;;
1625;SDS011;806;48.770;9.156;2022-09-03T08:31:25;0.90;;;0.70;;
1625;SDS011;806;48.770;9.156;2022-09-03T08:33:53;0.98;;;0.85;;
1625;SDS011;806;48.770;9.156;2022-09-03T08:36:23;1.08;;;0.90;;
1625;SDS011;806;48.770;9.156;2022-09-03T08:38:51;1.07;;;0.80;;
1625;SDS011;806;48.770;9.156;2022-09-03T08:41:26;1.10;;;0.80;;
1625;SDS011;806;48.770;9.156;2022-09-03T08:44:12;1.40;;;0.90;;
1625;SDS011;806;48.770;9.156;2022-09-03T08:46:49;1.00;;;0.80;;
1625;SDS011;806;48.770;9.156;2022-09-03T08:49:20;1.00;;;0.70;;
1625;SDS011;806;48.770;9.156;2022-09-03T08:51:51;1.17;;;0.80;;
1625;SDS011;806;48.770;9.156;2022-09-03T08:54:23;1.10;;;0.80;;
1625;SDS011;806;48.770;9.156;2022-09-03T08:56:54;1.10;;;0.77;;
1625;SDS011;806;48.770;9.156;2022-09-03T08:59:27;0.87;;;0.67;;
1625;SDS011;806;48.770;9.156;2022-09-03T09:01:56;1.23;;;0.77;;
1625;SDS011;806;48.770;9.156;2022-09-03T09:04:31;1.43;;;0.90;;
1625;SDS011;806;48.770;9.156;2022-09-03T09:07:10;1.20;;;0.83;;
1625;SDS011;806;48.770;9.156;2022-09-03T09:09:44;0.90;;;0.70;;
1625;SDS011;806;48.770;9.156;2022-09-03T09:12:19;0.90;;;0.70;;
1625;SDS011;806;48.770;9.156;2022-09-03T09:15:03;1.57;;;0.80;;
1625;SDS011;806;48.770;9.156;2022-09-03T09:17:44;1.23;;;0.70;;
1625;SDS011;806;48.770;9.156;2022-09-03T09:20:23;1.53;;;0.90;;
1625;SDS011;806;48.770;9.156;2022-09-03T09:22:59;1.40;;;0.93;;
1625;SDS011;806;48.770;9.156;2022-09-03T09:25:29;1.10;;;0.80;;
1625;SDS011;806;48.770;9.156;2022-09-03T09:28:03;1.30;;;0.77;;
1625;SDS011;806;48.770;9.156;2022-09-03T09:30:40;1.00;;;0.80;;
1625;SDS011;806;48.770;9.156;2022-09-03T09:33:09;0.87;;;0.70;;
1625;SDS011;806;48.770;9.156;2022-09-03T09:35:37;1.40;;;0.70;;
1625;SDS011;806;48.770;9.156;2022-09-03T09:38:06;1.43;;;0.80;;
1625;SDS011;806;48.770;9.156;2022-09-03T09:40:34;1.00;;;0.80;;
1625;SDS011;806;48.770;9.156;2022-09-03T09:43:06;0.80;;;0.70;;
1625;SDS011;806;48.770;9.156;2022-09-03T09:45:36;1.50;;;0.80;;
1625;SDS011;806;48.770;9.156;2022-09-03T09:48:12;0.80;;;0.80;;
1625;SDS011;806;48.770;9.156;2022-09-03T09:50:44;1.03;;;0.77;;
1625;SDS011;806;48.770;9.156;2022-09-03T09:53:11;0.90;;;0.80;;
1625;SDS011;806;48.770;9.156;2022-09-03T09:55:49;1.07;;;0.83;;
1625;SDS011;806;48.770;9.156;2022-09-03T09:58:18;1.00;;;0.80;;
1625;SDS011;806;48.770;9.156;2022-09-03T10:00:54;1.20;;;0.83;;
1625;SDS011;806;48.770;9.156;2022-09-03T10:03:39;0.90;;;0.80;;
1625;SDS011;806;48.770;9.156;2022-09-03T10:06:14;0.87;;;0.70;;
1625;SDS011;806;48.770;9.156;2022-09-03T10:09:06;1.20;;;0.97;;
1625;SDS011;806;48.770;9.156;2022-09-03T10:11:34;0.90;;;0.80;;
1625;SDS011;806;48.770;9.156;2022-09-03T10:14:04;1.60;;;0.80;;
1625;SDS011;806;48.770;9.156;2022-09-03T10:16:37;4.20;;;0.70;;
1625;SDS011;806;48.770;9.156;2022-09-03T10:19:12;1.60;;;0.80;;
1625;SDS011;806;48.770;9.156;2022-09-03T10:21:46;1.13;;;0.83;;
1625;SDS011;806;48.770;9.156;2022-09-03T10:27:10;1.40;;;0.83;;
1625;SDS011;806;48.770;9.156;2022-09-03T10:29:41;1.97;;;0.80;;
1625;SDS011;806;48.770;9.156;2022-09-03T10:32:18;1.37;;;0.90;;
1625;SDS011;806;48.770;9.156;2022-09-03T10:34:53;1.00;;;0.80;;
1625;SDS011;806;48.770;9.156;2022-09-03T10:37:32;1.20;;;1.00;;
1625;SDS011;806;48.770;9.156;2022-09-03T10:40:15;1.10;;;0.87;;
1625;SDS011;806;48.770;9.156;2022-09-03T10:42:56;0.80;;;0.70;;
1625;SDS011;806;48.770;9.156;2022-09-03T10:45:35;0.90;;;0.80;;
1625;SDS011;806;48.770;9.156;2022-09-03T10:51:05;0.90;;;0.80;;
1625;SDS011;806;48.770;9.156;2022-09-03T10:53:43;1.47;;;0.90;;
1625;SDS011;806;48.770;9.156;2022-09-03T10:56:21;1.80;;;0.90;;
1625;SDS011;806;48.770;9.156;2022-09-03T10:59:03;1.00;;;0.90;;
1625;SDS011;806;48.770;9.156;2022-09-03T11:01:41;1.00;;;0.90;;
1625;SDS011;806;48.770;9.156;2022-09-03T11:04:18;0.80;;;0.70;;
1625;SDS011;806;48.770;9.156;2022-09-03T11:06:53;1.03;;;0.83;;
1625;SDS011;806;48.770;9.156;2022-09-03T11:09:23;1.40;;;1.07;;
1625;SDS011;806;48.770;9.156;2022-09-03T11:11:55;1.10;;;0.90;;
1625;SDS011;806;48.770;9.156;2022-09-03T11:14:31;1.10;;;0.90;;
1625;SDS011;806;48.770;9.156;2022-09-03T11:17:03;2.67;;;0.77;;
1625;SDS011;806;48.770;9.156;2022-09-03T11:19:33;1.27;;;0.90;;
1625;SDS011;806;48.770;9.156;2022-09-03T11:22:08;4.07;;;1.00;;
1625;SDS011;806;48.770;9.156;2022-09-03T11:24:37;0.90;;;0.80;;
1625;SDS011;806;48.770;9.156;2022-09-03T11:27:10;1.03;;;0.90;;
1625;SDS011;806;48.770;9.156;2022-09-03T11:29:49;1.10;;;0.93;;
1625;SDS011;806;48.770;9.156;2022-09-03T11:32:25;1.60;;;0.93;;
1625;SDS011;806;48.770;9.156;2022-09-03T11:35:01;1.30;;;1.10;;
1625;SDS011;806;48.770;9.156;2022-09-03T11:37:46;1.70;;;0.90;;
1625;SDS011;806;48.770;9.156;2022-09-03T11:40:19;1.00;;;0.90;;
1625;SDS011;806;48.770;9.156;2022-09-03T11:43:04;1.80;;;0.90;;
1625;SDS011;806;48.770;9.156;2022-09-03T11:45:33;1.63;;;0.93;;
1625;SDS011;806;48.770;9.156;2022-09-03T11:50:58;1.97;;;0.80;;
1625;SDS011;806;48.770;9.156;2022-09-03T11:53:31;1.17;;;1.00;;
1625;SDS011;806;48.770;9.156;2022-09-03T11:56:00;2.93;;;0.83;;
1625;SDS011;806;48.770;9.156;2022-09-03T11:58:39;1.30;;;1.00;;
1625;SDS011;806;48.770;9.156;2022-09-03T12:01:07;1.10;;;0.83;;
1625;SDS011;806;48.770;9.156;2022-09-03T12:03:38;2.40;;;0.90;;
1625;SDS011;806;48.770;9.156;2022-09-03T12:06:18;0.83;;;0.80;;
1625;SDS011;806;48.770;9.156;2022-09-03T12:09:10;1.20;;;0.90;;
1625;SDS011;806;48.770;9.156;2022-09-03T12:12:05;1.10;;;0.90;;
1625;SDS011;806;48.770;9.156;2022-09-03T12:14:45;1.57;;;1.07;;
1625;SDS011;806;48.770;9.156;2022-09-03T12:17:24;1.07;;;0.90;;
1625;SDS011;806;48.770;9.156;2022-09-03T12:19:58;4.40;;;0.90;;
1625;SDS011;806;48.770;9.156;2022-09-03T12:22:26;0.90;;;0.80;;
1625;SDS011;806;48.770;9.156;2022-09-03T12:25:05;1.00;;;0.90;;
1625;SDS011;806;48.770;9.156;2022-09-03T12:27:34;1.37;;;0.90;;
1625;SDS011;806;48.770;9.156;2022-09-03T12:30:02;1.20;;;0.90;;
1625;SDS011;806;48.770;9.156;2022-09-03T12:32:39;1.43;;;0.80;;
1625;SDS011;806;48.770;9.156;2022-09-03T12:35:11;1.27;;;0.80;;
1625;SDS011;806;48.770;9.156;2022-09-03T12:37:43;1.40;;;0.70;;
1625;SDS011;806;48.770;9.156;2022-09-03T12:40:20;0.83;;;0.60;;
1625;SDS011;806;48.770;9.156;2022-09-03T12:42:48;0.87;;;0.60;;
1625;SDS011;806;48.770;9.156;2022-09-03T12:45:18;0.90;;;0.70;;
1625;SDS011;806;48.770;9.156;2022-09-03T12:47:47;0.80;;;0.60;;
1625;SDS011;806;48.770;9.156;2022-09-03T12:50:15;1.37;;;0.50;;
1625;SDS011;806;48.770;9.156;2022-09-03T12:52:45;1.00;;;0.50;;
1625;SDS011;806;48.770;9.156;2022-09-03T12:55:28;0.67;;;0.40;;
1625;SDS011;806;48.770;9.156;2022-09-03T12:57:59;0.90;;;0.40;;
1625;SDS011;806;48.770;9.156;2022-09-03T13:00:31;1.70;;;0.50;;
1625;SDS011;806;48.770;9.156;2022-09-03T13:03:02;0.67;;;0.40;;
1625;SDS011;806;48.770;9.156;2022-09-03T13:05:34;1.00;;;0.50;;
1625;SDS011;806;48.770;9.156;2022-09-03T13:08:06;0.87;;;0.30;;
1625;SDS011;806;48.770;9.156;2022-09-03T13:10:38;0.53;;;0.30;;
1625;SDS011;806;48.770;9.156;2022-09-03T13:13:14;0.70;;;0.40;;
1625;SDS011;806;48.770;9.156;2022-09-03T13:15:54;0.47;;;0.30;;
1625;SDS011;806;48.770;9.156;2022-09-03T13:18:30;0.70;;;0.40;;
1625;SDS011;806;48.770;9.156;2022-09-03T13:21:09;0.67;;;0.40;;
1625;SDS011;806;48.770;9.156;2022-09-03T13:23:55;0.73;;;0.40;;
1625;SDS011;806;48.770;9.156;2022-09-03T13:26:43;0.60;;;0.30;;
1625;SDS011;806;48.770;9.156;2022-09-03T13:29:33;0.80;;;0.40;;
1625;SDS011;806;48.770;9.156;2022-09-03T13:32:09;0.80;;;0.40;;
1625;SDS011;806;48.770;9.156;2022-09-03T13:34:49;0.70;;;0.50;;
1625;SDS011;806;48.770;9.156;2022-09-03T13:37:22;1.20;;;0.40;;
1625;SDS011;806;48.770;9.156;2022-09-03T13:39:56;0.90;;;0.40;;
1625;SDS011;806;48.770;9.156;2022-09-03T13:42:30;0.67;;;0.30;;
1625;SDS011;806;48.770;9.156;2022-09-03T13:45:05;0.50;;;0.33;;
1625;SDS011;806;48.770;9.156;2022-09-03T13:47:40;1.17;;;0.40;;
1625;SDS011;806;48.770;9.156;2022-09-03T13:50:24;0.77;;;0.40;;
1625;SDS011;806;48.770;9.156;2022-09-03T13:52:55;0.80;;;0.40;;
1625;SDS011;806;48.770;9.156;2022-09-03T13:55:27;0.50;;;0.30;;
1625;SDS011;806;48.770;9.156;2022-09-03T13:58:03;0.50;;;0.30;;
1625;SDS011;806;48.770;9.156;2022-09-03T14:00:37;0.60;;;0.30;;
1625;SDS011;806;48.770;9.156;2022-09-03T14:03:10;0.50;;;0.40;;
1625;SDS011;806;48.770;9.156;2022-09-03T14:05:50;0.60;;;0.30;;
1625;SDS011;806;48.770;9.156;2022-09-03T14:08:29;2.20;;;0.40;;
1625;SDS011;806;48.770;9.156;2022-09-03T14:11:19;0.97;;;0.40;;
1625;SDS011;806;48.770;9.156;2022-09-03T14:13:55;0.53;;;0.40;;
1625;SDS011;806;48.770;9.156;2022-09-03T14:16:33;0.60;;;0.30;;
1625;SDS011;806;48.770;9.156;2022-09-03T14:19:05;5.57;;;0.37;;
1625;SDS011;806;48.770;9.156;2022-09-03T14:21:38;0.40;;;0.23;;
1625;SDS011;806;48.770;9.156;2022-09-03T14:24:13;1.77;;;0.40;;
1625;SDS011;806;48.770;9.156;2022-09-03T14:26:53;0.60;;;0.40;;
1625;SDS011;806;48.770;9.156;2022-09-03T14:29:24;1.00;;;0.30;;
1625;SDS011;806;48.770;9.156;2022-09-03T14:34:53;0.60;;;0.40;;
1625;SDS011;806;48.770;9.156;2022-09-03T14:37:32;0.73;;;0.30;;
1625;SDS011;806;48.770;9.156;2022-09-03T14:40:11;0.50;;;0.30;;
1625;SDS011;806;48.770;9.156;2022-09-03T14:42:52;0.70;;;0.40;;
1625;SDS011;806;48.770;9.156;2022-09-03T14:45:33;0.50;;;0.30;;
1625;SDS011;806;48.770;9.156;2022-09-03T14:48:33;0.50;;;0.30;;
1625;SDS011;806;48.770;9.156;2022-09-03T14:51:13;0.50;;;0.30;;
1625;SDS011;806;48.770;9.156;2022-09-03T14:54:05;0.70;;;0.30;;
1625;SDS011;806;48.770;9.156;2022-09-03T14:56:49;0.60;;;0.30;;
1625;SDS011;806;48.770;9.156;2022-09-03T14:59:37;0.50;;;0.30;;
1625;SDS011;806;48.770;9.156;2022-09-03T15:02:20;0.60;;;0.30;;
1625;SDS011;806;48.770;9.156;2022-09-03T15:05:19;0.53;;;0.30;;
1625;SDS011;806;48.770;9.156;2022-09-03T15:08:07;0.57;;;0.30;;
1625;SDS011;806;48.770;9.156;2022-09-03T15:10:43;0.60;;;0.30;;
1625;SDS011;806;48.770;9.156;2022-09-03T15:13:15;0.90;;;0.40;;
1625;SDS011;806;48.770;9.156;2022-09-03T15:15:47;0.40;;;0.30;;
1625;SDS011;806;48.770;9.156;2022-09-03T15:18:28;0.50;;;0.30;;
1625;SDS011;806;48.770;9.156;2022-09-03T15:21:12;0.97;;;0.40;;
1625;SDS011;806;48.770;9.156;2022-09-03T15:23:51;0.50;;;0.30;;
1625;SDS011;806;48.770;9.156;2022-09-03T15:26:38;0.60;;;0.40;;
1625;SDS011;806;48.770;9.156;2022-09-03T15:29:28;0.57;;;0.30;;
1625;SDS011;806;48.770;9.156;2022-09-03T15:32:09;0.50;;;0.30;;
1625;SDS011;806;48.770;9.156;2022-09-03T15:34:54;0.40;;;0.30;;
1625;SDS011;806;48.770;9.156;2022-09-03T15:37:30;0.80;;;0.40;;
1625;SDS011;806;48.770;9.156;2022-09-03T15:40:03;0.47;;;0.30;;
1625;SDS011;806;48.770;9.156;2022-09-03T15:42:34;0.40;;;0.20;;
1625;SDS011;806;48.770;9.156;2022-09-03T15:45:03;1.07;;;0.40;;
1625;SDS011;806;48.770;9.156;2022-09-03T15:47:38;0.43;;;0.30;;
1625;SDS011;806;48.770;9.156;2022-09-03T15:50:24;1.87;;;0.40;;
1625;SDS011;806;48.770;9.156;2022-09-03T15:52:58;1.13;;;0.30;;
1625;SDS011;806;48.770;9.156;2022-09-03T15:55:31;0.50;;;0.30;;
1625;SDS011;806;48.770;9.156;2022-09-03T15:58:02;0.80;;;0.40;;
1625;SDS011;806;48.770;9.156;2022-09-03T16:00:47;0.50;;;0.40;;
1625;SDS011;806;48.770;9.156;2022-09-03T16:03:30;0.70;;;0.40;;
1625;SDS011;806;48.770;9.156;2022-09-03T16:06:17;0.60;;;0.40;;
1625;SDS011;806;48.770;9.156;2022-09-03T16:09:03;0.50;;;0.40;;
1625;SDS011;806;48.770;9.156;2022-09-03T16:11:44;0.50;;;0.30;;
1625;SDS011;806;48.770;9.156;2022-09-03T16:14:22;0.60;;;0.40;;
1625;SDS011;806;48.770;9.156;2022-09-03T16:16:57;0.70;;;0.40;;
1625;SDS011;806;48.770;9.156;2022-09-03T16:19:31;0.60;;;0.30;;
1625;SDS011;806;48.770;9.156;2022-09-03T16:22:05;1.17;;;0.40;;
1625;SDS011;806;48.770;9.156;2022-09-03T16:24:40;0.80;;;0.30;;